createdAt,value
2018-09-26T00:00:11.013Z,103026.68
2018-09-26T00:02:46.877Z,103027.94
2018-09-26T00:05:15.970Z,103023.47
2018-09-26T00:07:44.185Z,103017.00
2018-09-26T00:10:12.429Z,103025.56
2018-09-26T00:12:40.662Z,103016.92
2018-09-26T00:15:08.901Z,103014.54
2018-09-26T00:17:37.213Z,103005.59
2018-09-26T00:20:05.448Z,103002.80
2018-09-26T00:22:33.722Z,102996.22
2018-09-26T00:25:01.958Z,102995.35
2018-09-26T00:27:30.173Z,102991.02
2018-09-26T00:29:58.400Z,102989.02
2018-09-26T00:32:26.601Z,102984.87
2018-09-26T00:34:54.945Z,102981.42
2018-09-26T00:37:23.193Z,102984.70
2018-09-26T00:39:51.467Z,102979.75
2018-09-26T00:42:19.705Z,102974.55
2018-09-26T00:44:48.000Z,102974.78
2018-09-26T00:47:16.219Z,102977.91
2018-09-26T00:49:44.456Z,102962.64
2018-09-26T00:52:12.676Z,102957.05
2018-09-26T00:54:40.934Z,102963.05
2018-09-26T00:57:09.184Z,102964.86
2018-09-26T00:59:37.421Z,102966.47
2018-09-26T01:02:05.665Z,102961.28
2018-09-26T01:04:33.949Z,102955.52
2018-09-26T01:07:02.164Z,102945.62
2018-09-26T01:09:30.395Z,102949.94
2018-09-26T01:11:58.653Z,102933.05
2018-09-26T01:14:26.917Z,102915.94
2018-09-26T01:16:55.125Z,102915.53
2018-09-26T01:19:23.368Z,102922.27
2018-09-26T01:21:51.581Z,102930.45
2018-09-26T01:24:19.833Z,102921.00
2018-09-26T01:26:48.053Z,102922.94
2018-09-26T01:29:16.347Z,102919.73
2018-09-26T01:31:44.613Z,102914.61
2018-09-26T01:34:12.845Z,102916.38
2018-09-26T01:36:41.065Z,102911.09
2018-09-26T01:39:09.937Z,102905.75
2018-09-26T01:41:38.244Z,102905.99
2018-09-26T01:44:06.562Z,102913.84
2018-09-26T01:46:34.781Z,102915.19
2018-09-26T01:49:03.052Z,102911.28
2018-09-26T01:51:31.293Z,102913.05
2018-09-26T01:53:59.510Z,102904.80
2018-09-26T01:56:27.738Z,102907.83
2018-09-26T01:58:55.998Z,102912.00
2018-09-26T02:01:24.263Z,102902.80
2018-09-26T02:03:52.486Z,102898.34
2018-09-26T02:06:20.721Z,102903.45
2018-09-26T02:08:48.941Z,102907.11
2018-09-26T02:11:17.214Z,102902.56
2018-09-26T02:13:45.462Z,102903.84
2018-09-26T02:16:13.705Z,102901.11
2018-09-26T02:18:41.957Z,102903.45
2018-09-26T02:21:10.188Z,102904.33
2018-09-26T02:23:38.477Z,102904.39
2018-09-26T02:26:06.694Z,102899.78
2018-09-26T02:28:35.002Z,102900.17
2018-09-26T02:31:03.248Z,102884.28
2018-09-26T02:33:31.473Z,102888.27
2018-09-26T02:35:59.714Z,102887.16
2018-09-26T02:38:27.962Z,102875.98
2018-09-26T02:40:56.214Z,102883.14
2018-09-26T02:43:24.457Z,102881.97
2018-09-26T02:45:52.709Z,102884.25
2018-09-26T02:48:26.398Z,102881.30
2018-09-26T02:50:54.685Z,102887.78
2018-09-26T02:53:22.900Z,102897.67
2018-09-26T02:55:51.226Z,102895.75
2018-09-26T02:58:19.453Z,102891.05
2018-09-26T03:00:47.693Z,102893.45
2018-09-26T03:03:15.905Z,102881.55
2018-09-26T03:05:44.178Z,102878.51
2018-09-26T03:08:12.388Z,102883.47
2018-09-26T03:10:40.620Z,102880.92
2018-09-26T03:13:08.955Z,102887.46
2018-09-26T03:15:37.246Z,102882.20
2018-09-26T03:18:05.473Z,102867.42
2018-09-26T03:20:33.720Z,102857.92
2018-09-26T03:23:01.956Z,102858.86
2018-09-26T03:25:30.192Z,102849.28
2018-09-26T03:27:58.530Z,102851.86
2018-09-26T03:30:26.766Z,102849.14
2018-09-26T03:32:55.014Z,102842.34
2018-09-26T03:35:23.249Z,102845.29
2018-09-26T03:37:51.488Z,102834.19
2018-09-26T03:40:19.732Z,102821.80
2018-09-26T03:42:48.069Z,102822.15
2018-09-26T03:45:16.329Z,102819.10
2018-09-26T03:47:44.552Z,102812.47
2018-09-26T03:50:12.775Z,102811.92
2018-09-26T03:52:41.029Z,102815.42
2018-09-26T03:55:09.261Z,102815.52
2018-09-26T03:57:37.537Z,102819.59
2018-09-26T04:00:05.809Z,102819.09
2018-09-26T04:02:34.071Z,102825.81
2018-09-26T04:05:02.409Z,102826.94
2018-09-26T04:07:31.516Z,102824.08
2018-09-26T04:09:59.765Z,102818.55
2018-09-26T04:12:28.320Z,102820.37
2018-09-26T04:14:56.525Z,102834.12
2018-09-26T04:17:24.766Z,102823.59
2018-09-26T04:19:52.999Z,102821.48
2018-09-26T04:22:21.238Z,102824.70
2018-09-26T04:24:49.467Z,102822.22
2018-09-26T04:27:18.529Z,102823.50
2018-09-26T04:29:46.703Z,102817.18
2018-09-26T04:32:14.945Z,102813.30
2018-09-26T04:34:43.167Z,102811.92
2018-09-26T04:37:11.440Z,102808.23
2018-09-26T04:39:39.660Z,102802.43
2018-09-26T04:42:07.893Z,102793.55
2018-09-26T04:44:36.129Z,102797.64
2018-09-26T04:47:04.382Z,102795.48
2018-09-26T04:49:32.635Z,102795.14
2018-09-26T04:52:00.877Z,102804.97
2018-09-26T04:54:29.101Z,102799.46
2018-09-26T04:56:57.349Z,102803.30
2018-09-26T04:59:25.592Z,102799.78
2018-09-26T05:01:53.833Z,102803.94
2018-09-26T05:04:22.057Z,102812.88
2018-09-26T05:06:50.348Z,102805.55
2018-09-26T05:09:18.600Z,102807.30
2018-09-26T05:11:46.860Z,102799.95
2018-09-26T05:14:15.086Z,102802.02
2018-09-26T05:16:43.328Z,102802.59
2018-09-26T05:19:11.589Z,102813.91
2018-09-26T05:21:39.848Z,102809.86
2018-09-26T05:24:08.636Z,102806.15
2018-09-26T05:26:36.947Z,102804.25
2018-09-26T05:29:05.178Z,102813.35
2018-09-26T05:31:33.429Z,102798.23
2018-09-26T05:34:01.661Z,102802.16
2018-09-26T05:36:29.904Z,102801.67
2018-09-26T05:38:58.154Z,102803.34
2018-09-26T05:41:26.384Z,102799.74
2018-09-26T05:43:54.693Z,102802.70
2018-09-26T05:46:23.207Z,102794.40
2018-09-26T05:48:51.513Z,102788.01
2018-09-26T05:51:19.757Z,102783.78
2018-09-26T05:53:48.064Z,102783.38
2018-09-26T05:56:16.657Z,102778.30
2018-09-26T05:58:44.921Z,102779.86
2018-09-26T06:01:13.162Z,102772.45
2018-09-26T06:03:42.233Z,102777.08
2018-09-26T06:06:10.478Z,102769.46
2018-09-26T06:08:38.729Z,102771.63
2018-09-26T06:11:07.204Z,102770.69
2018-09-26T06:13:35.533Z,102762.45
2018-09-26T06:16:03.879Z,102759.94
2018-09-26T06:18:32.190Z,102754.52
2018-09-26T06:21:00.420Z,102754.21
2018-09-26T06:23:28.669Z,102752.41
2018-09-26T06:25:56.909Z,102749.05
2018-09-26T06:28:25.316Z,102742.70
2018-09-26T06:30:53.561Z,102740.72
2018-09-26T06:33:21.825Z,102742.13
2018-09-26T06:35:50.091Z,102734.40
2018-09-26T06:38:18.401Z,102731.28
2018-09-26T06:40:46.626Z,102727.87
2018-09-26T06:43:14.877Z,102725.80
2018-09-26T06:45:43.130Z,102733.02
2018-09-26T06:48:11.442Z,102737.16
2018-09-26T06:50:39.674Z,102730.81
2018-09-26T06:53:07.979Z,102729.19
2018-09-26T06:55:36.256Z,102722.30
2018-09-26T06:58:04.533Z,102724.36
2018-09-26T07:00:32.777Z,102730.85
2018-09-26T07:03:01.082Z,102726.33
2018-09-26T07:05:30.017Z,102732.11
2018-09-26T07:07:58.269Z,102738.45
2018-09-26T07:10:26.499Z,102730.45
2018-09-26T07:12:54.856Z,102731.91
2018-09-26T07:15:23.089Z,102735.63
2018-09-26T07:17:51.681Z,102736.31
2018-09-26T07:20:20.126Z,102738.28
2018-09-26T07:22:48.437Z,102746.98
2018-09-26T07:25:16.736Z,102753.23
2018-09-26T07:27:45.031Z,102747.39
2018-09-26T07:30:13.274Z,102749.28
2018-09-26T07:32:41.518Z,102755.00
2018-09-26T07:35:09.782Z,102748.67
2018-09-26T07:37:38.008Z,102762.77
2018-09-26T07:40:06.609Z,102764.17
2018-09-26T07:42:34.880Z,102764.25
2018-09-26T07:45:03.132Z,102761.66
2018-09-26T07:47:31.529Z,102735.77
2018-09-26T07:49:59.838Z,102743.59
2018-09-26T07:52:28.077Z,102739.25
2018-09-26T07:54:56.321Z,102747.09
2018-09-26T07:57:24.625Z,102748.37
2018-09-26T07:59:53.030Z,102753.88
2018-09-26T08:02:21.231Z,102756.23
2018-09-26T08:04:49.488Z,102754.77
2018-09-26T08:07:17.840Z,102759.87
2018-09-26T08:09:46.110Z,102760.50
2018-09-26T08:12:14.361Z,102766.06
2018-09-26T08:14:42.647Z,102766.32
2018-09-26T08:17:10.894Z,102772.84
2018-09-26T08:19:39.164Z,102758.36
2018-09-26T08:22:07.411Z,102749.83
2018-09-26T08:24:35.675Z,102748.10
2018-09-26T08:27:03.990Z,102749.43
2018-09-26T08:29:32.258Z,102746.82
2018-09-26T08:32:00.522Z,102741.76
2018-09-26T08:34:28.797Z,102739.33
2018-09-26T08:36:57.026Z,102742.91
2018-09-26T08:39:26.489Z,102739.53
2018-09-26T08:41:54.738Z,102745.70
2018-09-26T08:44:22.992Z,102749.43
2018-09-26T08:46:51.232Z,102750.71
2018-09-26T08:49:19.473Z,102751.44
2018-09-26T08:51:47.705Z,102745.73
2018-09-26T08:54:16.009Z,102743.34
2018-09-26T08:56:44.229Z,102742.97
2018-09-26T08:59:12.533Z,102741.66
2018-09-26T09:01:44.837Z,102748.81
2018-09-26T09:04:13.176Z,102745.06
2018-09-26T09:06:41.408Z,102741.59
2018-09-26T09:09:09.730Z,102733.34
2018-09-26T09:11:38.263Z,102731.94
2018-09-26T09:14:06.791Z,102740.09
2018-09-26T09:16:35.223Z,102743.44
2018-09-26T09:19:03.498Z,102748.00
2018-09-26T09:21:31.788Z,102747.91
2018-09-26T09:24:00.065Z,102748.75
2018-09-26T09:26:28.290Z,102746.39
2018-09-26T09:28:56.673Z,102750.54
2018-09-26T09:31:24.930Z,102745.92
2018-09-26T09:33:53.167Z,102748.02
2018-09-26T09:36:21.446Z,102747.77
2018-09-26T09:38:49.693Z,102750.30
2018-09-26T09:41:18.018Z,102744.84
2018-09-26T09:43:46.260Z,102739.16
2018-09-26T09:46:14.517Z,102733.69
2018-09-26T09:48:42.754Z,102731.48
2018-09-26T09:51:11.005Z,102723.42
2018-09-26T09:53:39.261Z,102719.21
2018-09-26T09:56:07.634Z,102715.54
2018-09-26T09:58:35.847Z,102716.44
2018-09-26T10:01:09.412Z,102710.47
2018-09-26T10:03:37.656Z,102700.47
2018-09-26T10:06:05.913Z,102697.25
2018-09-26T10:08:34.206Z,102686.96
2018-09-26T10:11:02.409Z,102677.41
2018-09-26T10:13:31.085Z,102675.83
2018-09-26T10:15:59.338Z,102684.67
2018-09-26T10:18:27.613Z,102679.42
2018-09-26T10:20:55.852Z,102678.59
2018-09-26T10:23:24.109Z,102677.06
2018-09-26T10:25:52.360Z,102673.03
2018-09-26T10:28:20.577Z,102670.03
2018-09-26T10:30:48.834Z,102664.98
2018-09-26T10:33:17.053Z,102672.67
2018-09-26T10:35:45.289Z,102671.07
2018-09-26T10:38:13.548Z,102674.41
2018-09-26T10:40:41.867Z,102662.45
2018-09-26T10:43:10.077Z,102662.17
2018-09-26T10:45:38.363Z,102651.75
2018-09-26T10:48:06.703Z,102654.31
2018-09-26T10:50:35.011Z,102648.50
2018-09-26T10:53:03.403Z,102650.73
2018-09-26T10:55:31.761Z,102648.39
2018-09-26T10:58:00.002Z,102647.67
2018-09-26T11:00:28.231Z,102646.59
2018-09-26T11:02:56.490Z,102640.80
2018-09-26T11:05:24.710Z,102633.22
2018-09-26T11:07:52.953Z,102636.69
2018-09-26T11:10:21.245Z,102627.25
2018-09-26T11:12:50.058Z,102624.88
2018-09-26T11:15:18.349Z,102631.32
2018-09-26T11:17:46.753Z,102633.80
2018-09-26T11:20:15.073Z,102635.04
2018-09-26T11:22:43.409Z,102631.69
2018-09-26T11:25:11.707Z,102620.75
2018-09-26T11:27:39.965Z,102631.38
2018-09-26T11:30:08.269Z,102633.14
2018-09-26T11:32:36.522Z,102627.30
2018-09-26T11:35:04.761Z,102621.53
2018-09-26T11:37:33.011Z,102611.74
2018-09-26T11:40:01.289Z,102607.14
2018-09-26T11:42:29.764Z,102601.05
2018-09-26T11:44:58.018Z,102609.88
2018-09-26T11:47:26.296Z,102602.90
2018-09-26T11:50:01.158Z,102602.21
2018-09-26T11:52:29.418Z,102590.39
2018-09-26T11:54:57.690Z,102594.59
2018-09-26T11:57:25.989Z,102592.05
2018-09-26T11:59:54.246Z,102591.92
2018-09-26T12:02:22.555Z,102587.62
2018-09-26T12:04:50.746Z,102577.33
2018-09-26T12:07:19.062Z,102583.05
2018-09-26T12:09:48.215Z,102576.05
2018-09-26T12:12:16.516Z,102573.46
2018-09-26T12:14:44.852Z,102570.59
2018-09-26T12:17:13.146Z,102558.67
2018-09-26T12:19:41.425Z,102558.97
2018-09-26T12:22:09.749Z,102559.04
2018-09-26T12:24:37.937Z,102538.75
2018-09-26T12:27:06.283Z,102542.17
2018-09-26T12:29:34.863Z,102546.09
2018-09-26T12:32:03.149Z,102540.05
2018-09-26T12:34:31.409Z,102528.34
2018-09-26T12:36:59.789Z,102527.92
2018-09-26T12:39:28.062Z,102525.25
2018-09-26T12:41:56.305Z,102521.05
2018-09-26T12:44:24.557Z,102521.58
2018-09-26T12:46:52.794Z,102520.03
2018-09-26T12:49:21.066Z,102509.20
2018-09-26T12:51:49.314Z,102499.95
2018-09-26T12:54:17.578Z,102499.50
2018-09-26T12:56:45.858Z,102493.33
2018-09-26T12:59:14.116Z,102490.15
2018-09-26T13:01:42.349Z,102496.14
2018-09-26T13:04:10.618Z,102495.56
2018-09-26T13:06:38.890Z,102492.39
2018-09-26T13:09:07.278Z,102478.97
2018-09-26T13:11:35.526Z,102475.66
2018-09-26T13:14:03.861Z,102476.88
2018-09-26T13:16:32.145Z,102472.91
2018-09-26T13:19:00.467Z,102471.73
2018-09-26T13:21:28.657Z,102464.91
2018-09-26T13:23:56.914Z,102449.45
2018-09-26T13:26:26.043Z,102464.28
2018-09-26T13:28:54.157Z,102467.28
2018-09-26T13:31:22.421Z,102454.63
2018-09-26T13:33:50.654Z,102456.45
2018-09-26T13:36:18.975Z,102456.62
2018-09-26T13:38:47.215Z,102445.31
2018-09-26T13:41:15.484Z,102450.41
2018-09-26T13:43:43.717Z,102442.11
2018-09-26T13:46:12.084Z,102445.26
2018-09-26T13:48:40.269Z,102430.33
2018-09-26T13:51:08.517Z,102434.95
2018-09-26T13:53:36.761Z,102436.70
2018-09-26T13:56:05.023Z,102433.19
2018-09-26T13:58:33.269Z,102430.73
2018-09-26T14:01:01.800Z,102425.59
2018-09-26T14:03:30.059Z,102424.75
2018-09-26T14:05:58.320Z,102432.64
2018-09-26T14:08:26.560Z,102423.91
2018-09-26T14:10:54.839Z,102418.92
2018-09-26T14:13:23.115Z,102415.05
2018-09-26T14:15:51.352Z,102411.21
2018-09-26T14:18:19.676Z,102410.23
2018-09-26T14:21:04.699Z,102410.23
2018-09-26T14:23:33.163Z,102402.84
2018-09-26T14:26:01.601Z,102410.79
2018-09-26T14:28:30.105Z,102407.67
2018-09-26T14:30:58.605Z,102404.36
2018-09-26T14:33:27.872Z,102405.91
2018-09-26T14:35:56.292Z,102409.39
2018-09-26T14:38:24.834Z,102398.93
2018-09-26T14:40:53.377Z,102406.14
2018-09-26T14:43:21.846Z,102402.02
2018-09-26T14:45:50.422Z,102396.59
2018-09-26T14:48:18.822Z,102390.32
2018-09-26T14:50:48.129Z,102385.30
2018-09-26T14:53:16.672Z,102375.86
2018-09-26T14:55:45.096Z,102379.81
2018-09-26T14:58:13.612Z,102380.00
2018-09-26T15:00:42.002Z,102380.02
2018-09-26T15:03:10.445Z,102382.19
2018-09-26T15:05:38.922Z,102380.94
2018-09-26T15:08:07.373Z,102373.24
2018-09-26T15:10:35.909Z,102383.53
2018-09-26T15:13:04.326Z,102375.77
2018-09-26T15:15:32.758Z,102371.78
2018-09-26T15:18:01.213Z,102372.63
2018-09-26T15:20:29.643Z,102383.84
2018-09-26T15:22:58.046Z,102384.06
2018-09-26T15:25:26.476Z,102376.59
2018-09-26T15:27:55.021Z,102370.13
2018-09-26T15:30:23.505Z,102359.91
2018-09-26T15:32:51.909Z,102359.94
2018-09-26T15:35:20.403Z,102358.53
2018-09-26T15:37:49.021Z,102364.27
2018-09-26T15:40:17.553Z,102369.44
2018-09-26T15:42:45.897Z,102369.84
2018-09-26T15:45:14.336Z,102371.86
2018-09-26T15:47:42.764Z,102367.69
2018-09-26T15:50:11.425Z,102370.88
2018-09-26T15:52:39.866Z,102366.58
2018-09-26T15:55:08.309Z,102367.48
2018-09-26T15:57:37.072Z,102371.46
2018-09-26T16:00:05.778Z,102362.70
2018-09-26T16:02:34.109Z,102356.66
2018-09-26T16:05:19.162Z,102359.69
2018-09-26T16:07:47.868Z,102357.95
2018-09-26T16:10:16.145Z,102366.08
2018-09-26T16:12:45.448Z,102362.55
2018-09-26T16:15:13.733Z,102360.46
2018-09-26T16:17:42.051Z,102363.42
2018-09-26T16:20:10.297Z,102359.80
2018-09-26T16:22:38.570Z,102351.24
2018-09-26T16:25:06.805Z,102352.56
2018-09-26T16:27:35.121Z,102352.09
2018-09-26T16:30:03.446Z,102353.25
2018-09-26T16:32:31.722Z,102349.31
2018-09-26T16:35:00.011Z,102355.78
2018-09-26T16:37:28.258Z,102361.80
2018-09-26T16:39:56.525Z,102363.06
2018-09-26T16:42:24.825Z,102365.63
2018-09-26T16:44:53.063Z,102364.72
2018-09-26T16:47:21.325Z,102370.73
2018-09-26T16:49:49.578Z,102368.13
2018-09-26T16:52:17.873Z,102368.13
2018-09-26T16:54:46.189Z,102374.05
2018-09-26T16:57:14.451Z,102372.36
2018-09-26T16:59:42.684Z,102382.61
2018-09-26T17:02:11.020Z,102382.13
2018-09-26T17:04:39.234Z,102379.57
2018-09-26T17:07:07.535Z,102376.18
2018-09-26T17:09:35.811Z,102381.28
2018-09-26T17:12:04.093Z,102387.66
2018-09-26T17:14:32.367Z,102393.73
2018-09-26T17:17:00.613Z,102385.10
2018-09-26T17:19:28.946Z,102383.30
2018-09-26T17:21:57.230Z,102384.07
2018-09-26T17:24:25.578Z,102390.89
2018-09-26T17:26:53.766Z,102393.96
2018-09-26T17:29:22.065Z,102396.86
2018-09-26T17:31:50.313Z,102396.83
2018-09-26T17:34:19.048Z,102400.50
2018-09-26T17:36:47.293Z,102405.64
2018-09-26T17:39:15.553Z,102403.92
2018-09-26T17:41:43.792Z,102407.87
2018-09-26T17:44:12.057Z,102408.67
2018-09-26T17:46:40.313Z,102410.84
2018-09-26T17:49:08.643Z,102404.38
2018-09-26T17:51:36.851Z,102408.73
2018-09-26T17:54:05.123Z,102405.28
2018-09-26T17:56:33.377Z,102407.80
2018-09-26T17:59:01.645Z,102403.67
2018-09-26T18:01:29.942Z,102401.19
2018-09-26T18:03:58.322Z,102406.08
2018-09-26T18:06:26.616Z,102404.95
2018-09-26T18:08:54.896Z,102410.12
2018-09-26T18:11:23.145Z,102407.59
2018-09-26T18:13:51.437Z,102408.14
2018-09-26T18:16:19.734Z,102409.53
2018-09-26T18:18:48.063Z,102394.02
2018-09-26T18:21:16.305Z,102406.13
2018-09-26T18:23:44.596Z,102403.13
2018-09-26T18:26:12.873Z,102396.69
2018-09-26T18:28:41.150Z,102398.43
2018-09-26T18:31:09.480Z,102405.73
2018-09-26T18:33:37.814Z,102404.00
2018-09-26T18:36:06.003Z,102409.20
2018-09-26T18:38:34.808Z,102408.72
2018-09-26T18:41:03.076Z,102410.46
2018-09-26T18:43:31.364Z,102416.48
2018-09-26T18:45:59.658Z,102423.36
2018-09-26T18:48:27.930Z,102429.44
2018-09-26T18:50:56.879Z,102431.19
2018-09-26T18:53:25.508Z,102425.53
2018-09-26T18:55:53.663Z,102425.59
2018-09-26T18:58:21.933Z,102434.64
2018-09-26T19:00:50.230Z,102433.29
2018-09-26T19:03:18.521Z,102429.83
2018-09-26T19:05:46.782Z,102431.03
2018-09-26T19:08:15.043Z,102436.72
2018-09-26T19:10:43.718Z,102437.59
2018-09-26T19:13:12.011Z,102438.07
2018-09-26T19:15:40.281Z,102434.58
2018-09-26T19:18:08.574Z,102442.77
2018-09-26T19:20:36.878Z,102437.17
2018-09-26T19:23:05.173Z,102435.00
2018-09-26T19:25:33.453Z,102435.39
2018-09-26T19:28:01.712Z,102426.76
2018-09-26T19:30:30.009Z,102427.02
2018-09-26T19:32:58.309Z,102424.53
2018-09-26T19:35:26.590Z,102422.79
2018-09-26T19:37:54.873Z,102415.03
2018-09-26T19:40:23.146Z,102417.88
2018-09-26T19:42:51.445Z,102417.36
2018-09-26T19:45:19.754Z,102416.73
2018-09-26T19:47:48.023Z,102415.12
2018-09-26T19:50:16.320Z,102415.55
2018-09-26T19:52:44.566Z,102414.50
2018-09-26T19:55:12.854Z,102410.59
2018-09-26T19:57:41.130Z,102413.14
2018-09-26T20:00:09.421Z,102416.56
2018-09-26T20:02:37.710Z,102410.98
2018-09-26T20:05:06.297Z,102414.85
2018-09-26T20:07:34.535Z,102413.56
2018-09-26T20:10:02.842Z,102415.23
2018-09-26T20:12:31.162Z,102420.89
2018-09-26T20:14:59.464Z,102420.44
2018-09-26T20:17:27.772Z,102416.00
2018-09-26T20:19:56.077Z,102413.77
2018-09-26T20:22:24.341Z,102410.27
2018-09-26T20:24:52.701Z,102413.84
2018-09-26T20:27:21.952Z,102405.67
2018-09-26T20:29:50.227Z,102411.67
2018-09-26T20:32:18.464Z,102413.03
2018-09-26T20:34:47.454Z,102412.97
2018-09-26T20:37:16.290Z,102413.31
2018-09-26T20:39:45.350Z,102412.02
2018-09-26T20:42:13.984Z,102412.86
2018-09-26T20:44:42.895Z,102425.67
2018-09-26T20:47:11.567Z,102429.23
2018-09-26T20:49:40.559Z,102419.53
2018-09-26T20:52:09.583Z,102417.47
2018-09-26T20:54:38.573Z,102415.20
2018-09-26T20:57:07.461Z,102419.08
2018-09-26T20:59:35.777Z,102416.08
2018-09-26T21:02:04.384Z,102421.31
2018-09-26T21:04:32.693Z,102418.90
2018-09-26T21:07:00.985Z,102410.66
2018-09-26T21:09:29.341Z,102417.64
2018-09-26T21:11:57.676Z,102415.06
2018-09-26T21:14:25.955Z,102411.08
2018-09-26T21:16:54.223Z,102415.79
2018-09-26T21:19:22.496Z,102415.61
2018-09-26T21:21:50.789Z,102421.64
2018-09-26T21:24:19.193Z,102422.94
2018-09-26T21:26:47.522Z,102421.64
2018-09-26T21:29:16.295Z,102423.73
2018-09-26T21:31:44.607Z,102430.23
2018-09-26T21:34:12.869Z,102424.23
2018-09-26T21:36:41.157Z,102422.17
2018-09-26T21:39:09.595Z,102420.34
2018-09-26T21:41:37.781Z,102415.14
2018-09-26T21:44:06.117Z,102418.41
2018-09-26T21:46:34.381Z,102421.88
2018-09-26T21:49:03.114Z,102430.98
2018-09-26T21:51:31.470Z,102437.48
2018-09-26T21:53:59.718Z,102444.36
2018-09-26T21:56:28.002Z,102436.72
2018-09-26T21:58:56.273Z,102441.36
2018-09-26T22:01:28.710Z,102433.56
2018-09-26T22:03:56.954Z,102440.48
2018-09-26T22:06:25.377Z,102434.98
2018-09-26T22:08:53.649Z,102429.39
2018-09-26T22:11:22.581Z,102430.69
2018-09-26T22:13:50.842Z,102437.94
2018-09-26T22:16:19.124Z,102434.98
2018-09-26T22:18:47.375Z,102429.81
2018-09-26T22:21:15.680Z,102430.98
2018-09-26T22:23:43.926Z,102425.41
2018-09-26T22:26:12.193Z,102434.02
2018-09-26T22:28:40.457Z,102429.12
2018-09-26T22:31:08.741Z,102431.51
2018-09-26T22:33:37.694Z,102430.64
2018-09-26T22:36:05.694Z,102429.72
2018-09-26T22:38:33.954Z,102433.09
2018-09-26T22:41:02.229Z,102418.94
2018-09-26T22:43:30.477Z,102428.31
2018-09-26T22:45:58.753Z,102424.55
2018-09-26T22:48:27.046Z,102426.16
2018-09-26T22:50:55.335Z,102426.50
2018-09-26T22:53:24.416Z,102426.16
2018-09-26T22:55:52.652Z,102416.25
2018-09-26T22:58:20.929Z,102417.58
2018-09-26T23:00:49.177Z,102417.91
2018-09-26T23:03:17.435Z,102416.70
2018-09-26T23:05:45.685Z,102413.82
2018-09-26T23:08:13.962Z,102415.91
2018-09-26T23:10:42.234Z,102408.16
2018-09-26T23:13:10.506Z,102395.17
2018-09-26T23:24:10.225Z,102412.91
2018-09-26T23:26:38.489Z,102411.27
2018-09-26T23:29:06.805Z,102410.44
2018-09-26T23:31:35.081Z,102405.77
2018-09-26T23:34:03.410Z,102404.55
2018-09-26T23:36:31.694Z,102398.16
2018-09-26T23:39:00.011Z,102398.65
2018-09-26T23:41:28.346Z,102387.83
2018-09-26T23:43:56.645Z,102379.48
2018-09-26T23:46:24.918Z,102380.73
2018-09-26T23:48:53.226Z,102389.31
2018-09-26T23:51:21.493Z,102392.47
2018-09-26T23:53:49.781Z,102391.94
2018-09-26T23:56:18.083Z,102382.78
2018-09-26T23:58:46.362Z,102373.63
